createdAt,value
2022-12-01T00:02:06.438Z,7.10
2022-12-01T00:05:08.781Z,6.70
2022-12-01T00:08:11.002Z,7.10
2022-12-01T00:11:13.212Z,7.43
2022-12-01T00:14:16.717Z,7.45
2022-12-01T00:17:19.007Z,7.10
2022-12-01T00:20:21.269Z,8.18
2022-12-01T00:23:23.673Z,7.30
2022-12-01T00:26:26.476Z,7.37
2022-12-01T00:29:28.711Z,7.32
2022-12-01T00:32:31.504Z,7.18
2022-12-01T00:35:33.677Z,7.50
2022-12-01T00:38:36.183Z,8.00
2022-12-01T00:41:38.407Z,7.57
2022-12-01T00:44:40.973Z,7.95
2022-12-01T00:47:43.501Z,6.95
2022-12-01T00:50:46.093Z,6.93
2022-12-01T00:53:48.320Z,7.23
2022-12-01T00:56:51.125Z,7.23
2022-12-01T00:59:53.400Z,7.40
2022-12-01T01:02:55.650Z,7.35
2022-12-01T01:06:03.192Z,7.82
2022-12-01T01:09:05.632Z,7.80
2022-12-01T01:12:07.854Z,8.00
2022-12-01T01:15:10.419Z,6.72
2022-12-01T01:18:12.988Z,7.68
2022-12-01T01:21:17.462Z,7.60
2022-12-01T01:24:20.359Z,7.00
2022-12-01T01:27:22.553Z,7.87
2022-12-01T01:30:25.146Z,7.47
2022-12-01T01:33:27.422Z,8.18
2022-12-01T01:36:29.637Z,7.97
2022-12-01T01:39:32.179Z,7.50
2022-12-01T01:42:34.659Z,7.83
2022-12-01T01:45:37.169Z,7.32
2022-12-01T01:48:40.664Z,8.43
2022-12-01T01:51:43.145Z,7.03
2022-12-01T01:54:47.878Z,7.43
2022-12-01T01:57:50.105Z,8.30
2022-12-01T02:00:52.351Z,8.27
2022-12-01T02:03:55.161Z,7.05
2022-12-01T02:06:57.500Z,7.60
2022-12-01T02:09:59.696Z,8.43
2022-12-01T02:13:20.949Z,8.53
2022-12-01T02:16:23.141Z,8.60
2022-12-01T02:19:44.245Z,9.05
2022-12-01T02:23:08.520Z,7.75
2022-12-01T02:26:10.908Z,7.53
2022-12-01T02:29:32.254Z,7.33
2022-12-01T02:32:39.849Z,7.18
2022-12-01T02:35:51.271Z,7.13
2022-12-01T02:38:59.175Z,7.00
2022-12-01T02:42:08.008Z,7.47
2022-12-01T02:45:12.585Z,5.53
2022-12-01T02:48:18.199Z,6.22
2022-12-01T02:51:25.277Z,6.70
2022-12-01T02:54:28.998Z,7.45
2022-12-01T02:57:31.292Z,6.23
2022-12-01T03:00:33.546Z,7.23
2022-12-01T03:03:36.092Z,6.47
2022-12-01T03:06:38.256Z,6.63
2022-12-01T03:09:59.335Z,7.22
2022-12-01T03:13:08.012Z,6.77
2022-12-01T03:16:13.726Z,6.90
2022-12-01T03:19:15.936Z,7.43
2022-12-01T03:22:28.565Z,7.03
2022-12-01T03:25:31.596Z,7.22
2022-12-01T03:28:36.869Z,5.87
2022-12-01T03:31:42.872Z,6.87
2022-12-01T03:34:51.545Z,7.47
2022-12-01T03:37:57.136Z,7.32
2022-12-01T03:41:06.685Z,7.30
2022-12-01T03:44:11.147Z,7.03
2022-12-01T03:47:15.790Z,6.33
2022-12-01T03:50:18.761Z,6.50
2022-12-01T03:53:30.824Z,7.50
2022-12-01T03:57:02.925Z,6.88
2022-12-01T04:00:06.928Z,7.10
2022-12-01T04:03:18.871Z,7.60
2022-12-01T04:06:21.223Z,6.82
2022-12-01T04:09:23.551Z,6.80
2022-12-01T04:12:33.048Z,7.30
2022-12-01T04:15:35.542Z,6.80
2022-12-01T04:18:37.909Z,6.50
2022-12-01T04:21:40.160Z,7.57
2022-12-01T04:24:42.621Z,7.35
2022-12-01T04:27:44.792Z,6.45
2022-12-01T04:30:47.564Z,6.77
2022-12-01T04:33:49.829Z,6.23
2022-12-01T04:36:52.025Z,7.70
2022-12-01T04:39:54.226Z,7.72
2022-12-01T04:42:56.447Z,7.90
2022-12-01T04:45:58.901Z,7.53
2022-12-01T04:49:01.349Z,7.33
2022-12-01T04:52:03.650Z,7.30
2022-12-01T04:55:06.258Z,6.93
2022-12-01T04:58:08.761Z,6.60
2022-12-01T05:01:12.734Z,7.77
2022-12-01T05:04:15.886Z,7.10
2022-12-01T05:07:18.632Z,7.50
2022-12-01T05:10:21.297Z,7.30
2022-12-01T05:13:23.846Z,7.53
2022-12-01T05:16:27.245Z,8.07
2022-12-01T05:19:48.333Z,7.67
2022-12-01T05:23:10.765Z,8.90
2022-12-01T05:26:14.889Z,8.18
2022-12-01T05:29:17.146Z,8.43
2022-12-01T05:32:19.294Z,9.10
2022-12-01T05:35:21.576Z,9.70
2022-12-01T05:38:24.199Z,9.23
2022-12-01T05:41:26.876Z,8.32
2022-12-01T05:44:29.118Z,8.02
2022-12-01T05:47:31.371Z,7.90
2022-12-01T05:50:33.662Z,8.03
2022-12-01T05:53:36.997Z,9.75
2022-12-01T05:56:42.963Z,9.52
2022-12-01T05:59:47.428Z,9.55
2022-12-01T06:02:49.980Z,8.77
2022-12-01T06:05:52.174Z,8.30
2022-12-01T06:08:54.624Z,9.30
2022-12-01T06:11:56.810Z,8.68
2022-12-01T06:14:59.159Z,11.27
2022-12-01T06:18:01.941Z,10.00
2022-12-01T06:21:05.760Z,10.23
2022-12-01T06:24:08.529Z,12.25
2022-12-01T06:27:10.809Z,10.68
2022-12-01T06:30:13.386Z,11.23
2022-12-01T06:33:15.661Z,11.03
2022-12-01T06:36:18.103Z,11.47
2022-12-01T06:39:20.982Z,11.02
2022-12-01T06:42:23.258Z,13.00
2022-12-01T06:45:30.545Z,12.88
2022-12-01T06:48:38.611Z,11.90
2022-12-01T06:51:43.433Z,12.03
2022-12-01T06:54:46.541Z,12.15
2022-12-01T06:57:49.127Z,12.43
2022-12-01T07:00:52.791Z,13.77
2022-12-01T07:03:56.029Z,12.23
2022-12-01T07:06:58.746Z,13.10
2022-12-01T07:10:02.999Z,12.70
2022-12-01T07:13:05.980Z,12.27
2022-12-01T07:16:09.726Z,13.05
2022-12-01T07:19:11.998Z,12.93
2022-12-01T07:22:16.030Z,13.43
2022-12-01T07:25:18.536Z,13.13
2022-12-01T07:28:21.499Z,12.98
2022-12-01T07:31:26.380Z,13.70
2022-12-01T07:34:29.397Z,13.07
2022-12-01T07:37:31.918Z,12.77
2022-12-01T07:40:37.554Z,15.15
2022-12-01T07:43:44.721Z,13.82
2022-12-01T07:47:01.101Z,14.38
2022-12-01T07:50:08.110Z,14.23
2022-12-01T07:53:13.282Z,14.83
2022-12-01T07:56:23.358Z,14.25
2022-12-01T07:59:32.133Z,16.02
2022-12-01T08:03:01.931Z,14.73
2022-12-01T08:06:05.402Z,14.93
2022-12-01T08:09:09.998Z,14.13
2022-12-01T08:12:13.354Z,14.43
2022-12-01T08:15:16.421Z,16.30
2022-12-01T08:18:19.065Z,18.08
2022-12-01T08:21:22.392Z,20.47
2022-12-01T08:24:25.721Z,17.57
2022-12-01T08:27:27.986Z,16.88
2022-12-01T08:30:30.496Z,18.88
2022-12-01T08:33:33.169Z,25.42
2022-12-01T08:36:35.857Z,22.20
2022-12-01T08:39:38.174Z,18.33
2022-12-01T08:42:40.779Z,18.77
2022-12-01T08:45:43.014Z,19.70
2022-12-01T08:48:55.240Z,18.70
2022-12-01T08:52:19.784Z,18.90
2022-12-01T08:55:22.969Z,16.53
2022-12-01T08:58:29.194Z,16.27
2022-12-01T09:01:34.153Z,14.63
2022-12-01T09:04:36.450Z,15.38
2022-12-01T09:07:38.769Z,14.40
2022-12-01T09:10:41.331Z,14.73
2022-12-01T09:13:52.990Z,15.15
2022-12-01T09:16:57.253Z,13.95
2022-12-01T09:20:03.503Z,14.73
2022-12-01T09:23:07.387Z,13.38
2022-12-01T09:26:13.927Z,12.07
2022-12-01T09:29:17.491Z,12.23
2022-12-01T09:32:20.344Z,10.95
2022-12-01T09:35:23.977Z,9.88
2022-12-01T09:38:28.677Z,10.20
2022-12-01T09:41:33.552Z,10.20
2022-12-01T09:44:52.972Z,8.40
2022-12-01T09:48:00.626Z,8.20
2022-12-01T09:51:11.401Z,6.95
2022-12-01T09:54:18.327Z,7.93
2022-12-01T09:57:23.177Z,7.10
2022-12-01T10:00:32.303Z,7.20
2022-12-01T10:03:41.149Z,7.07
2022-12-01T10:06:48.569Z,7.03
2022-12-01T10:09:56.238Z,6.07
2022-12-01T10:13:01.642Z,6.00
2022-12-01T10:16:10.111Z,6.05
2022-12-01T10:19:18.208Z,5.85
2022-12-01T10:22:30.456Z,5.78
2022-12-01T10:25:43.678Z,5.55
2022-12-01T10:28:48.832Z,5.10
2022-12-01T10:32:18.581Z,5.18
2022-12-01T10:35:25.913Z,4.90
2022-12-01T10:38:31.492Z,4.57
2022-12-01T10:41:38.157Z,3.70
2022-12-01T10:44:42.655Z,3.67
2022-12-01T10:48:10.485Z,5.00
2022-12-01T10:51:50.505Z,3.30
2022-12-01T10:55:23.607Z,3.50
2022-12-01T10:58:27.618Z,3.53
2022-12-01T11:01:32.316Z,3.77
2022-12-01T11:04:36.808Z,3.70
2022-12-01T11:07:46.771Z,4.15
2022-12-01T11:10:49.825Z,3.63
2022-12-01T11:13:54.151Z,3.45
2022-12-01T11:16:56.517Z,3.80
2022-12-01T11:19:59.527Z,4.00
2022-12-01T11:23:27.136Z,4.18
2022-12-01T11:26:34.507Z,3.85
2022-12-01T11:29:38.301Z,4.40
2022-12-01T11:32:50.827Z,4.00
2022-12-01T11:35:54.378Z,4.40
2022-12-01T11:42:36.503Z,4.40
2022-12-01T11:45:40.479Z,4.55
2022-12-01T11:48:57.329Z,4.03
2022-12-01T11:52:16.559Z,4.60
2022-12-01T11:55:21.967Z,4.40
2022-12-01T11:58:25.470Z,4.65
2022-12-01T12:01:47.533Z,4.50
2022-12-01T12:05:08.622Z,4.33
2022-12-01T12:08:19.880Z,4.20
2022-12-01T12:11:34.418Z,4.22
2022-12-01T12:14:49.027Z,3.90
2022-12-01T12:18:02.664Z,4.40
2022-12-01T12:21:10.430Z,3.37
2022-12-01T12:24:27.566Z,3.83
2022-12-01T12:27:52.890Z,4.57
2022-12-01T12:31:12.948Z,4.57
2022-12-01T12:34:26.631Z,4.13
2022-12-01T12:37:46.093Z,4.93
2022-12-01T12:41:02.861Z,4.82
2022-12-01T12:44:35.388Z,4.68
2022-12-01T12:48:03.080Z,4.13
2022-12-01T12:51:31.607Z,4.60
2022-12-01T12:54:49.562Z,4.60
2022-12-01T12:58:10.880Z,5.00
2022-12-01T13:01:23.897Z,5.20
2022-12-01T13:04:32.174Z,5.20
2022-12-01T13:07:48.641Z,5.55
2022-12-01T13:10:52.093Z,4.27
2022-12-01T13:14:06.994Z,5.20
2022-12-01T13:17:39.307Z,4.80
2022-12-01T13:20:42.158Z,4.53
2022-12-01T13:23:46.286Z,4.07
2022-12-01T13:26:55.625Z,4.70
2022-12-01T13:29:59.486Z,4.35
2022-12-01T13:33:06.622Z,4.57
2022-12-01T13:39:37.227Z,4.00
2022-12-01T13:42:40.779Z,4.90
2022-12-01T13:45:43.901Z,4.82
2022-12-01T13:48:46.896Z,4.80
2022-12-01T13:52:08.839Z,5.35
2022-12-01T13:55:11.778Z,4.68
2022-12-01T13:58:14.811Z,5.40
2022-12-01T14:01:25.495Z,5.18
2022-12-01T14:04:30.321Z,5.57
2022-12-01T14:07:35.365Z,5.38
2022-12-01T14:10:38.418Z,4.70
2022-12-01T14:13:46.999Z,4.93
2022-12-01T14:16:55.693Z,5.40
2022-12-01T14:20:18.653Z,5.45
2022-12-01T14:23:33.520Z,5.25
2022-12-01T14:26:44.921Z,5.82
2022-12-01T14:29:48.327Z,5.70
2022-12-01T14:32:51.132Z,5.63
2022-12-01T14:35:53.680Z,6.10
2022-12-01T14:38:59.036Z,5.90
2022-12-01T14:42:47.502Z,6.65
2022-12-01T14:45:55.038Z,5.87
2022-12-01T14:48:58.827Z,5.97
2022-12-01T14:52:04.844Z,6.38
2022-12-01T14:55:15.078Z,7.78
2022-12-01T14:58:20.122Z,7.22
2022-12-01T15:01:23.651Z,8.00
2022-12-01T15:04:26.512Z,8.23
2022-12-01T15:07:30.049Z,8.00
2022-12-01T15:10:37.237Z,7.80
2022-12-01T15:13:50.546Z,7.90
2022-12-01T15:16:55.325Z,7.30
2022-12-01T15:19:58.600Z,8.25
2022-12-01T15:23:01.990Z,8.23
2022-12-01T15:26:04.394Z,7.65
2022-12-01T15:29:06.996Z,7.83
2022-12-01T15:32:12.662Z,7.50
2022-12-01T15:35:19.005Z,8.32
2022-12-01T15:38:24.478Z,9.90
2022-12-01T15:41:29.778Z,10.05
2022-12-01T15:44:34.168Z,9.47
2022-12-01T15:48:05.971Z,8.83
2022-12-01T15:51:11.414Z,9.18
2022-12-01T15:54:24.599Z,8.65
2022-12-01T15:57:26.923Z,9.45
2022-12-01T16:00:29.237Z,8.88
2022-12-01T16:03:31.872Z,9.27
2022-12-01T16:06:35.624Z,10.25
2022-12-01T16:09:54.937Z,10.77
2022-12-01T16:13:16.161Z,12.82
2022-12-01T16:16:30.917Z,13.57
2022-12-01T16:19:34.051Z,14.57
2022-12-01T16:22:36.860Z,15.80
2022-12-01T16:25:39.834Z,14.93
2022-12-01T16:28:42.390Z,15.23
2022-12-01T16:32:12.708Z,15.23
2022-12-01T16:35:20.689Z,14.33
2022-12-01T16:38:23.900Z,15.35
2022-12-01T16:41:37.938Z,15.00
2022-12-01T16:44:41.886Z,13.82
2022-12-01T16:47:46.798Z,14.35
2022-12-01T16:50:49.775Z,13.23
2022-12-01T16:53:52.061Z,12.45
2022-12-01T16:56:54.367Z,16.17
2022-12-01T16:59:56.639Z,15.93
2022-12-01T17:02:59.442Z,15.90
2022-12-01T17:06:02.454Z,14.87
2022-12-01T17:09:05.114Z,16.10
2022-12-01T17:12:07.455Z,15.55
2022-12-01T17:15:10.839Z,16.75
2022-12-01T17:18:13.854Z,16.70
2022-12-01T17:21:16.138Z,17.43
2022-12-01T17:24:19.316Z,18.75
2022-12-01T17:27:22.679Z,18.02
2022-12-01T17:30:25.224Z,19.63
2022-12-01T17:33:27.573Z,21.57
2022-12-01T17:36:29.776Z,22.13
2022-12-01T17:39:31.996Z,21.48
2022-12-01T17:42:34.609Z,19.83
2022-12-01T17:45:42.042Z,21.48
2022-12-01T17:48:45.512Z,21.63
2022-12-01T17:51:47.781Z,21.73
2022-12-01T17:54:50.325Z,21.33
2022-12-01T17:57:52.984Z,20.50
2022-12-01T18:00:55.209Z,21.17
2022-12-01T18:03:58.288Z,21.53
2022-12-01T18:07:00.687Z,19.83
2022-12-01T18:10:03.089Z,20.75
2022-12-01T18:13:05.608Z,19.77
2022-12-01T18:16:09.220Z,19.40
2022-12-01T18:19:11.793Z,19.83
2022-12-01T18:22:14.285Z,22.27
2022-12-01T18:25:16.577Z,21.17
2022-12-01T18:28:18.988Z,18.67
2022-12-01T18:31:21.350Z,19.30
2022-12-01T18:34:23.900Z,19.20
2022-12-01T18:37:26.722Z,19.10
2022-12-01T18:40:29.096Z,18.90
2022-12-01T18:43:32.155Z,19.77
2022-12-01T18:46:34.847Z,19.65
2022-12-01T18:49:37.129Z,21.90
2022-12-01T18:52:39.415Z,20.03
2022-12-01T18:55:42.065Z,21.02
2022-12-01T18:58:44.535Z,19.48
2022-12-01T19:01:48.617Z,20.80
2022-12-01T19:04:53.229Z,20.07
2022-12-01T19:07:56.045Z,19.30
2022-12-01T19:11:03.051Z,21.42
2022-12-01T19:14:05.404Z,19.88
2022-12-01T19:17:08.549Z,19.75
2022-12-01T19:20:11.078Z,19.07
2022-12-01T19:23:13.642Z,20.87
2022-12-01T19:26:17.758Z,22.23
2022-12-01T19:29:20.156Z,22.77
2022-12-01T19:32:23.026Z,20.42
2022-12-01T19:35:25.450Z,24.00
2022-12-01T19:38:28.003Z,24.73
2022-12-01T19:41:31.234Z,23.70
2022-12-01T19:44:34.199Z,21.73
2022-12-01T19:47:37.177Z,22.75
2022-12-01T19:50:39.580Z,21.23
2022-12-01T19:53:42.113Z,20.90
2022-12-01T19:56:45.205Z,19.98
2022-12-01T19:59:47.653Z,19.42
2022-12-01T20:02:50.107Z,18.90
2022-12-01T20:05:52.797Z,17.47
2022-12-01T20:08:56.119Z,18.13
2022-12-01T20:11:58.581Z,17.20
2022-12-01T20:15:00.950Z,18.27
2022-12-01T20:18:03.361Z,18.15
2022-12-01T20:21:17.396Z,17.50
2022-12-01T20:24:21.725Z,17.00
2022-12-01T20:27:24.378Z,16.30
2022-12-01T20:30:26.795Z,15.63
2022-12-01T20:33:29.646Z,15.52
2022-12-01T20:36:32.136Z,14.53
2022-12-01T20:39:37.264Z,14.50
2022-12-01T20:42:39.823Z,12.65
2022-12-01T20:45:42.385Z,13.68
2022-12-01T20:48:44.816Z,13.88
2022-12-01T20:51:47.197Z,12.17
2022-12-01T20:54:49.739Z,12.87
2022-12-01T20:57:52.256Z,13.80
2022-12-01T21:00:54.988Z,13.27
2022-12-01T21:03:57.665Z,12.45
2022-12-01T21:07:00.347Z,12.83
2022-12-01T21:10:03.121Z,13.13
2022-12-01T21:13:44.062Z,13.95
2022-12-01T21:16:49.415Z,13.50
2022-12-01T21:20:18.083Z,13.40
2022-12-01T21:23:20.382Z,13.50
2022-12-01T21:26:22.850Z,13.20
2022-12-01T21:29:26.519Z,12.40
2022-12-01T21:32:33.523Z,12.10
2022-12-01T21:35:35.941Z,12.35
2022-12-01T21:38:38.158Z,12.10
2022-12-01T21:41:40.402Z,13.13
2022-12-01T21:44:42.823Z,12.73
2022-12-01T21:47:45.219Z,12.80
2022-12-01T21:50:52.385Z,12.88
2022-12-01T21:53:56.542Z,13.57
2022-12-01T21:56:59.229Z,13.70
2022-12-01T22:00:20.057Z,13.20
2022-12-01T22:03:27.213Z,12.63
2022-12-01T22:06:39.929Z,12.45
2022-12-01T22:09:42.101Z,12.53
2022-12-01T22:12:44.342Z,11.90
2022-12-01T22:15:46.653Z,13.40
2022-12-01T22:18:59.260Z,12.65
2022-12-01T22:22:20.266Z,13.48
2022-12-01T22:25:26.374Z,13.30
2022-12-01T22:28:28.850Z,11.93
2022-12-01T22:31:31.442Z,13.40
2022-12-01T22:34:34.198Z,12.90
2022-12-01T22:37:38.450Z,11.55
2022-12-01T22:40:55.014Z,11.73
2022-12-01T22:44:02.194Z,12.53
2022-12-01T22:47:04.567Z,12.48
2022-12-01T22:50:24.375Z,13.13
2022-12-01T22:53:29.172Z,12.30
2022-12-01T22:56:39.477Z,12.10
2022-12-01T22:59:42.798Z,12.23
2022-12-01T23:02:47.654Z,12.30
2022-12-01T23:05:53.652Z,12.25
2022-12-01T23:08:55.880Z,11.82
2022-12-01T23:12:13.571Z,11.90
2022-12-01T23:15:34.741Z,10.73
2022-12-01T23:18:36.966Z,11.02
2022-12-01T23:21:39.208Z,10.80
2022-12-01T23:24:41.457Z,13.10
2022-12-01T23:27:44.432Z,12.63
2022-12-01T23:30:47.897Z,12.23
2022-12-01T23:33:50.449Z,12.60
2022-12-01T23:36:53.036Z,12.10
2022-12-01T23:39:55.638Z,11.93
2022-12-01T23:43:23.809Z,12.17
2022-12-01T23:46:27.081Z,12.27
2022-12-01T23:49:31.393Z,12.25
2022-12-01T23:52:35.598Z,12.55
2022-12-01T23:55:37.850Z,11.48
2022-12-01T23:58:40.022Z,12.45
